createdAt,value
2024-02-07T00:00:02.433Z,6.01
2024-02-07T00:01:02.542Z,5.67
2024-02-07T00:02:02.654Z,5.26
2024-02-07T00:03:03.002Z,5.91
2024-02-07T00:04:02.691Z,6.09
2024-02-07T00:05:02.772Z,5.65
2024-02-07T00:06:02.813Z,5.78
2024-02-07T00:07:02.812Z,5.88
2024-02-07T00:08:02.924Z,5.68
2024-02-07T00:09:02.925Z,6.33
2024-02-07T00:10:02.982Z,5.75
2024-02-07T00:11:03.016Z,5.98
2024-02-07T00:12:03.068Z,5.89
2024-02-07T00:13:03.129Z,5.43
2024-02-07T00:14:03.203Z,6.32
2024-02-07T00:15:03.239Z,5.63
2024-02-07T00:16:03.325Z,6.27
2024-02-07T00:17:03.365Z,5.82
2024-02-07T00:18:03.484Z,5.54
2024-02-07T00:19:03.531Z,5.96
2024-02-07T00:20:03.656Z,6.34
2024-02-07T00:21:03.544Z,6.10
2024-02-07T00:22:03.605Z,6.15
2024-02-07T00:23:04.062Z,5.96
2024-02-07T00:24:03.732Z,6.19
2024-02-07T00:25:03.802Z,6.57
2024-02-07T00:26:03.832Z,6.02
2024-02-07T00:27:03.920Z,6.12
2024-02-07T00:28:03.934Z,6.26
2024-02-07T00:29:03.970Z,6.03
2024-02-07T00:30:04.087Z,5.36
2024-02-07T00:31:04.136Z,5.79
2024-02-07T00:32:04.181Z,6.16
2024-02-07T00:33:04.575Z,6.11
2024-02-07T00:34:04.264Z,5.59
2024-02-07T00:35:04.412Z,6.09
2024-02-07T00:36:04.424Z,5.54
2024-02-07T00:37:04.444Z,5.67
2024-02-07T00:38:04.499Z,5.76
2024-02-07T00:39:04.596Z,5.62
2024-02-07T00:40:04.607Z,5.85
2024-02-07T00:41:04.721Z,5.52
2024-02-07T00:42:04.712Z,6.13
2024-02-07T00:43:05.043Z,6.11
2024-02-07T00:44:04.843Z,6.18
2024-02-07T00:45:04.899Z,5.79
2024-02-07T00:46:04.970Z,5.90
2024-02-07T00:47:05.015Z,5.64
2024-02-07T00:48:05.168Z,5.96
2024-02-07T00:49:05.226Z,6.05
2024-02-07T00:50:05.264Z,4.92
2024-02-07T00:51:05.328Z,5.63
2024-02-07T00:52:06.119Z,5.77
2024-02-07T00:53:05.407Z,5.99
2024-02-07T00:54:05.413Z,6.16
2024-02-07T00:55:05.470Z,6.11
2024-02-07T00:56:05.533Z,5.83
2024-02-07T00:57:05.572Z,6.09
2024-02-07T00:58:06.106Z,5.53
2024-02-07T00:59:05.690Z,5.88
2024-02-07T01:00:05.767Z,6.19
2024-02-07T01:01:05.873Z,5.83
2024-02-07T01:02:05.908Z,5.94
2024-02-07T01:03:05.931Z,5.94
2024-02-07T01:04:06.082Z,5.26
2024-02-07T01:05:06.246Z,5.76
2024-02-07T01:06:06.117Z,5.94
2024-02-07T01:07:06.248Z,6.16
2024-02-07T01:08:06.176Z,5.56
2024-02-07T01:09:06.232Z,5.13
2024-02-07T01:10:06.479Z,6.07
2024-02-07T01:11:06.385Z,6.25
2024-02-07T01:12:06.562Z,5.74
2024-02-07T01:13:06.453Z,6.00
2024-02-07T01:14:06.482Z,5.89
2024-02-07T01:15:06.550Z,5.91
2024-02-07T01:16:06.719Z,6.16
2024-02-07T01:17:07.055Z,5.39
2024-02-07T01:18:06.842Z,5.61
2024-02-07T01:19:06.936Z,6.57
2024-02-07T01:20:06.991Z,5.95
2024-02-07T01:21:06.944Z,5.27
2024-02-07T01:22:07.011Z,5.86
2024-02-07T01:23:07.061Z,6.51
2024-02-07T01:24:07.057Z,5.85
2024-02-07T01:25:07.193Z,5.89
2024-02-07T01:26:07.200Z,5.17
2024-02-07T01:27:07.597Z,5.40
2024-02-07T01:28:07.342Z,5.65
2024-02-07T01:29:07.351Z,5.92
2024-02-07T01:30:07.422Z,5.75
2024-02-07T01:31:07.525Z,5.61
2024-02-07T01:32:07.527Z,5.92
2024-02-07T01:33:08.302Z,5.40
2024-02-07T01:34:07.722Z,5.73
2024-02-07T01:35:07.941Z,5.11
2024-02-07T01:36:08.584Z,5.18
2024-02-07T01:37:07.884Z,5.84
2024-02-07T01:38:07.875Z,5.37
2024-02-07T01:39:07.920Z,5.67
2024-02-07T01:40:08.011Z,5.95
2024-02-07T01:41:08.042Z,5.62
2024-02-07T01:42:08.113Z,5.36
2024-02-07T01:43:08.197Z,5.78
2024-02-07T01:44:08.226Z,5.62
2024-02-07T01:45:08.285Z,5.49
2024-02-07T01:46:08.413Z,4.72
2024-02-07T01:47:08.554Z,5.47
2024-02-07T01:48:09.626Z,5.03
2024-02-07T01:49:08.676Z,5.00
2024-02-07T01:50:08.600Z,5.22
2024-02-07T01:51:08.618Z,5.01
2024-02-07T01:52:08.719Z,5.32
2024-02-07T01:53:08.771Z,4.93
2024-02-07T01:54:08.819Z,5.15
2024-02-07T01:55:08.899Z,4.76
2024-02-07T01:56:08.936Z,5.39
2024-02-07T01:57:09.052Z,5.52
2024-02-07T01:58:09.068Z,4.91
2024-02-07T01:59:09.045Z,5.60
2024-02-07T02:00:09.133Z,6.00
2024-02-07T02:01:09.279Z,5.70
2024-02-07T02:02:09.519Z,5.37
2024-02-07T02:03:09.366Z,5.34
2024-02-07T02:04:09.374Z,5.08
2024-02-07T02:05:09.431Z,5.03
2024-02-07T02:06:09.462Z,5.24
2024-02-07T02:07:09.617Z,4.64
2024-02-07T02:08:09.631Z,5.20
2024-02-07T02:09:09.633Z,5.35
2024-02-07T02:10:12.062Z,5.24
2024-02-07T02:11:09.756Z,4.93
2024-02-07T02:12:09.688Z,4.94
2024-02-07T02:13:09.771Z,5.29
2024-02-07T02:14:09.709Z,5.75
2024-02-07T02:15:09.724Z,5.49
2024-02-07T02:16:09.750Z,5.20
2024-02-07T02:17:10.096Z,5.41
2024-02-07T02:18:09.803Z,4.73
2024-02-07T02:19:09.787Z,4.56
2024-02-07T02:20:09.833Z,5.25
2024-02-07T02:21:09.715Z,5.38
2024-02-07T02:22:09.772Z,5.68
2024-02-07T02:23:09.730Z,5.41
2024-02-07T02:24:09.853Z,5.49
2024-02-07T02:25:09.766Z,5.95
2024-02-07T02:26:09.688Z,5.02
2024-02-07T02:27:09.722Z,5.12
2024-02-07T02:28:09.769Z,5.41
2024-02-07T02:29:09.730Z,4.99
2024-02-07T02:30:09.729Z,5.14
2024-02-07T02:31:09.765Z,4.58
2024-02-07T02:32:09.739Z,5.55
2024-02-07T02:33:09.807Z,5.59
2024-02-07T02:34:09.816Z,4.93
2024-02-07T02:35:09.856Z,4.66
2024-02-07T02:36:09.782Z,5.03
2024-02-07T02:37:09.950Z,4.22
2024-02-07T02:38:09.954Z,5.63
2024-02-07T02:39:09.998Z,5.39
2024-02-07T02:40:10.129Z,5.27
2024-02-07T02:41:10.249Z,5.13
2024-02-07T02:42:10.178Z,5.03
2024-02-07T02:43:10.262Z,5.13
2024-02-07T02:44:10.372Z,5.17
2024-02-07T02:45:10.359Z,5.11
2024-02-07T02:46:10.530Z,4.80
2024-02-07T02:47:10.412Z,4.87
2024-02-07T02:48:13.841Z,5.05
2024-02-07T02:49:10.532Z,4.24
2024-02-07T02:50:10.510Z,4.73
2024-02-07T02:51:10.496Z,5.13
2024-02-07T02:52:10.505Z,4.61
2024-02-07T02:53:10.503Z,5.02
2024-02-07T02:54:10.514Z,5.18
2024-02-07T02:55:10.499Z,4.46
2024-02-07T02:56:10.586Z,4.19
2024-02-07T02:57:10.493Z,4.73
2024-02-07T02:58:10.501Z,4.59
2024-02-07T02:59:10.561Z,4.66
2024-02-07T03:00:10.512Z,4.56
2024-02-07T03:01:10.560Z,5.12
2024-02-07T03:02:10.808Z,4.23
2024-02-07T03:03:10.528Z,4.86
2024-02-07T03:04:10.593Z,5.24
2024-02-07T03:05:10.575Z,4.82
2024-02-07T03:06:10.558Z,4.84
2024-02-07T03:07:10.573Z,4.96
2024-02-07T03:08:10.609Z,4.47
2024-02-07T03:09:10.742Z,5.19
2024-02-07T03:10:10.576Z,4.96
2024-02-07T03:11:10.546Z,4.55
2024-02-07T03:12:10.510Z,4.91
2024-02-07T03:13:10.636Z,4.88
2024-02-07T03:14:10.500Z,4.55
2024-02-07T03:15:10.535Z,3.83
2024-02-07T03:16:10.541Z,4.55
2024-02-07T03:17:10.528Z,4.86
2024-02-07T03:18:10.612Z,5.41
2024-02-07T03:19:10.729Z,5.01
2024-02-07T03:20:10.715Z,4.73
2024-02-07T03:21:10.771Z,4.93
2024-02-07T03:22:10.812Z,4.55
2024-02-07T03:23:10.819Z,4.82
2024-02-07T03:24:10.842Z,4.44
2024-02-07T03:25:10.930Z,5.09
2024-02-07T03:26:11.304Z,4.43
2024-02-07T03:27:11.057Z,4.73
2024-02-07T03:28:11.135Z,4.76
2024-02-07T03:29:11.117Z,4.89
2024-02-07T03:30:11.152Z,4.91
2024-02-07T03:31:11.213Z,4.80
2024-02-07T03:32:11.294Z,4.83
2024-02-07T03:33:11.352Z,4.48
2024-02-07T03:34:11.614Z,4.70
2024-02-07T03:35:11.504Z,4.52
2024-02-07T03:36:11.468Z,4.40
2024-02-07T03:37:11.495Z,5.03
2024-02-07T03:38:11.532Z,4.57
2024-02-07T03:39:11.601Z,4.97
2024-02-07T03:40:11.741Z,4.63
2024-02-07T03:41:11.709Z,4.41
2024-02-07T03:42:11.758Z,4.60
2024-02-07T03:43:11.851Z,4.54
2024-02-07T03:44:11.876Z,4.61
2024-02-07T03:45:11.904Z,5.02
2024-02-07T03:46:15.720Z,4.79
2024-02-07T03:47:12.063Z,4.47
2024-02-07T03:48:11.991Z,4.85
2024-02-07T03:49:12.072Z,4.53
2024-02-07T03:50:12.235Z,4.97
2024-02-07T03:51:11.982Z,5.21
2024-02-07T03:52:12.017Z,4.16
2024-02-07T03:53:11.994Z,4.77
2024-02-07T03:54:12.006Z,4.49
2024-02-07T03:55:12.053Z,4.93
2024-02-07T03:56:11.992Z,4.89
2024-02-07T03:57:11.963Z,4.28
2024-02-07T03:58:12.031Z,5.15
2024-02-07T03:59:11.987Z,4.69
2024-02-07T04:00:11.997Z,4.51
2024-02-07T04:01:12.218Z,4.95
2024-02-07T04:02:12.080Z,5.09
2024-02-07T04:03:12.029Z,4.46
2024-02-07T04:04:12.060Z,4.64
2024-02-07T04:05:12.062Z,4.40
2024-02-07T04:06:12.015Z,4.80
2024-02-07T04:07:12.189Z,4.65
2024-02-07T04:08:12.346Z,4.74
2024-02-07T04:09:12.347Z,4.72
2024-02-07T04:10:12.095Z,4.34
2024-02-07T04:11:12.077Z,4.73
2024-02-07T04:12:12.131Z,4.32
2024-02-07T04:13:12.463Z,4.85
2024-02-07T04:14:12.258Z,4.50
2024-02-07T04:15:12.284Z,4.80
2024-02-07T04:16:12.395Z,4.49
2024-02-07T04:17:12.429Z,4.53
2024-02-07T04:18:12.526Z,4.74
2024-02-07T04:19:12.677Z,4.47
2024-02-07T04:20:12.652Z,4.43
2024-02-07T04:21:12.622Z,4.70
2024-02-07T04:22:12.664Z,4.68
2024-02-07T04:23:12.739Z,4.15
2024-02-07T04:24:12.794Z,4.58
2024-02-07T04:25:12.918Z,4.93
2024-02-07T04:26:12.847Z,4.61
2024-02-07T04:27:12.902Z,4.36
2024-02-07T04:28:13.005Z,4.80
2024-02-07T04:29:13.030Z,4.23
2024-02-07T04:30:13.058Z,4.73
2024-02-07T04:31:20.484Z,4.43
2024-02-07T04:32:20.418Z,4.53
2024-02-07T04:33:20.603Z,4.69
2024-02-07T04:34:20.485Z,4.74
2024-02-07T04:35:20.441Z,4.64
2024-02-07T04:36:20.444Z,4.73
2024-02-07T04:37:20.522Z,4.63
2024-02-07T04:38:20.425Z,4.06
2024-02-07T04:39:20.437Z,4.47
2024-02-07T04:40:20.494Z,4.75
2024-02-07T04:41:20.458Z,4.48
2024-02-07T04:42:20.436Z,4.75
2024-02-07T04:43:20.468Z,4.39
2024-02-07T04:44:20.457Z,4.13
2024-02-07T04:45:20.484Z,4.56
2024-02-07T04:46:20.538Z,4.73
2024-02-07T04:47:20.462Z,4.89
2024-02-07T04:48:20.468Z,4.59
2024-02-07T04:49:20.522Z,4.56
2024-02-07T04:50:20.490Z,5.05
2024-02-07T04:51:20.448Z,4.76
2024-02-07T04:52:20.474Z,4.63
2024-02-07T04:53:20.450Z,4.69
2024-02-07T04:54:20.454Z,4.70
2024-02-07T04:55:20.473Z,4.83
2024-02-07T04:56:20.483Z,3.96
2024-02-07T04:57:20.460Z,4.87
2024-02-07T04:58:20.519Z,4.84
2024-02-07T04:59:20.446Z,4.52
2024-02-07T05:00:20.445Z,4.51
2024-02-07T05:01:20.651Z,4.27
2024-02-07T05:02:20.584Z,4.31
2024-02-07T05:03:20.673Z,4.49
2024-02-07T05:04:21.427Z,4.31
2024-02-07T05:05:20.728Z,4.45
2024-02-07T05:06:20.773Z,4.59
2024-02-07T05:07:20.869Z,5.08
2024-02-07T05:08:20.942Z,4.39
2024-02-07T05:09:20.918Z,4.86
2024-02-07T05:10:20.992Z,4.66
2024-02-07T05:11:21.057Z,4.81
2024-02-07T05:12:21.100Z,5.27
2024-02-07T05:13:21.187Z,4.89
2024-02-07T05:14:21.206Z,4.07
2024-02-07T05:15:21.241Z,4.86
2024-02-07T05:16:21.302Z,4.67
2024-02-07T05:17:21.336Z,5.00
2024-02-07T05:18:21.485Z,4.16
2024-02-07T05:19:21.696Z,4.40
2024-02-07T05:20:21.506Z,4.79
2024-02-07T05:21:21.516Z,4.76
2024-02-07T05:22:21.587Z,4.91
2024-02-07T05:23:21.936Z,4.79
2024-02-07T05:24:21.677Z,4.13
2024-02-07T05:25:21.828Z,4.57
2024-02-07T05:26:21.800Z,5.34
2024-02-07T05:27:21.853Z,4.37
2024-02-07T05:28:21.915Z,4.60
2024-02-07T05:29:21.933Z,4.13
2024-02-07T05:30:21.981Z,4.47
2024-02-07T05:31:22.099Z,4.86
2024-02-07T05:32:22.300Z,4.40
2024-02-07T05:33:22.531Z,4.33
2024-02-07T05:34:22.471Z,4.42
2024-02-07T05:35:22.417Z,4.83
2024-02-07T05:36:22.298Z,4.76
2024-02-07T05:37:22.434Z,4.82
2024-02-07T05:38:22.465Z,5.05
2024-02-07T05:39:22.455Z,4.53
2024-02-07T05:40:22.553Z,4.33
2024-02-07T05:41:22.592Z,4.66
2024-02-07T05:42:22.624Z,4.12
2024-02-07T05:43:22.719Z,4.82
2024-02-07T05:44:22.741Z,4.62
2024-02-07T05:45:22.831Z,4.70
2024-02-07T05:46:22.899Z,4.65
2024-02-07T05:47:22.960Z,4.76
2024-02-07T05:48:23.029Z,4.70
2024-02-07T05:49:23.143Z,4.50
2024-02-07T05:50:23.107Z,4.78
2024-02-07T05:51:23.137Z,4.32
2024-02-07T05:52:23.230Z,4.87
2024-02-07T05:53:23.455Z,4.44
2024-02-07T05:54:23.313Z,4.12
2024-02-07T05:55:23.442Z,4.68
2024-02-07T05:56:23.436Z,4.65
2024-02-07T05:57:23.490Z,4.63
2024-02-07T05:58:23.569Z,5.18
2024-02-07T05:59:23.698Z,4.95
2024-02-07T06:00:23.665Z,4.43
2024-02-07T06:01:23.859Z,4.73
2024-02-07T06:02:23.839Z,4.48
2024-02-07T06:03:23.958Z,4.31
2024-02-07T06:04:23.967Z,4.67
2024-02-07T06:05:23.985Z,4.12
2024-02-07T06:06:24.083Z,4.30
2024-02-07T06:07:24.178Z,4.88
2024-02-07T06:08:24.127Z,4.75
2024-02-07T06:09:24.164Z,5.34
2024-02-07T06:10:24.309Z,4.55
2024-02-07T06:11:24.248Z,4.45
2024-02-07T06:12:24.344Z,4.52
2024-02-07T06:13:24.477Z,4.82
2024-02-07T06:14:24.410Z,4.46
2024-02-07T06:15:24.482Z,4.01
2024-02-07T06:16:24.611Z,4.36
2024-02-07T06:17:24.643Z,4.94
2024-02-07T06:18:24.627Z,4.66
2024-02-07T06:19:24.949Z,4.44
2024-02-07T06:20:25.096Z,5.46
2024-02-07T06:21:24.820Z,4.52
2024-02-07T06:22:24.967Z,4.37
2024-02-07T06:23:24.895Z,4.63
2024-02-07T06:24:24.946Z,4.28
2024-02-07T06:25:25.020Z,4.65
2024-02-07T06:26:25.046Z,4.63
2024-02-07T06:27:25.102Z,5.20
2024-02-07T06:28:25.615Z,4.17
2024-02-07T06:29:25.190Z,4.64
2024-02-07T06:30:25.282Z,4.87
2024-02-07T06:31:25.316Z,4.38
2024-02-07T06:32:25.353Z,4.20
2024-02-07T06:33:25.441Z,4.70
2024-02-07T06:34:25.689Z,4.83
2024-02-07T06:35:25.580Z,4.68
2024-02-07T06:36:25.571Z,4.65
2024-02-07T06:37:25.611Z,4.43
2024-02-07T06:38:25.633Z,4.63
2024-02-07T06:39:25.701Z,4.64
2024-02-07T06:40:25.783Z,4.30
2024-02-07T06:41:25.811Z,4.30
2024-02-07T06:42:25.811Z,4.80
2024-02-07T06:43:27.079Z,4.70
2024-02-07T06:44:25.930Z,4.69
2024-02-07T06:45:26.000Z,4.21
2024-02-07T06:46:26.078Z,4.06
2024-02-07T06:47:26.056Z,4.79
2024-02-07T06:48:26.490Z,4.27
2024-02-07T06:49:26.302Z,4.17
2024-02-07T06:50:26.286Z,4.61
2024-02-07T06:51:26.242Z,4.74
2024-02-07T06:52:26.310Z,4.48
2024-02-07T06:53:26.317Z,4.01
2024-02-07T06:54:26.358Z,4.86
2024-02-07T06:55:26.435Z,4.38
2024-02-07T06:56:26.486Z,4.01
2024-02-07T06:57:26.532Z,4.65
2024-02-07T06:58:26.611Z,4.38
2024-02-07T06:59:26.603Z,4.60
2024-02-07T07:00:26.620Z,4.62
2024-02-07T07:01:26.689Z,5.06
2024-02-07T07:02:26.677Z,4.22
2024-02-07T07:03:27.019Z,4.15
2024-02-07T07:04:26.834Z,4.01
2024-02-07T07:05:26.823Z,4.30
2024-02-07T07:06:26.892Z,4.93
2024-02-07T07:07:26.903Z,3.90
2024-02-07T07:08:26.972Z,5.02
2024-02-07T07:09:27.026Z,4.54
2024-02-07T07:10:27.068Z,4.81
2024-02-07T07:11:27.119Z,4.72
2024-02-07T07:12:27.102Z,4.80
2024-02-07T07:13:27.498Z,4.34
2024-02-07T07:14:27.222Z,4.36
2024-02-07T07:15:33.260Z,4.51
2024-02-07T07:16:28.336Z,5.02
2024-02-07T07:17:27.301Z,4.47
2024-02-07T07:18:27.518Z,4.44
2024-02-07T07:19:27.364Z,4.21
2024-02-07T07:20:27.243Z,4.33
2024-02-07T07:21:27.239Z,4.75
2024-02-07T07:22:27.308Z,4.33
2024-02-07T07:23:27.288Z,5.06
2024-02-07T07:24:27.273Z,4.55
2024-02-07T07:25:27.261Z,4.80
2024-02-07T07:26:27.302Z,4.86
2024-02-07T07:27:27.251Z,4.27
2024-02-07T07:28:27.511Z,4.76
2024-02-07T07:29:27.342Z,4.79
2024-02-07T07:30:27.388Z,4.60
2024-02-07T07:31:28.421Z,4.33
2024-02-07T07:32:27.538Z,4.68
2024-02-07T07:33:27.513Z,4.82
2024-02-07T07:34:27.456Z,4.37
2024-02-07T07:35:27.609Z,5.03
2024-02-07T07:36:27.375Z,4.57
2024-02-07T07:37:27.470Z,4.64
2024-02-07T07:38:27.413Z,4.34
2024-02-07T07:39:27.406Z,4.41
2024-02-07T07:40:27.488Z,4.81
2024-02-07T07:41:27.446Z,5.06
2024-02-07T07:42:27.430Z,4.77
2024-02-07T07:43:27.489Z,5.06
2024-02-07T07:44:27.520Z,4.54
2024-02-07T07:45:27.585Z,4.54
2024-02-07T07:46:27.649Z,4.56
2024-02-07T07:47:27.725Z,4.84
2024-02-07T07:48:27.815Z,4.47
2024-02-07T07:49:28.005Z,4.86
2024-02-07T07:50:27.942Z,3.94
2024-02-07T07:51:27.927Z,4.90
2024-02-07T07:52:28.036Z,4.57
2024-02-07T07:53:28.043Z,4.87
2024-02-07T07:54:28.129Z,4.48
2024-02-07T07:55:28.172Z,4.87
2024-02-07T07:56:28.171Z,4.51
2024-02-07T07:57:28.281Z,4.58
2024-02-07T07:58:34.105Z,4.65
2024-02-07T07:59:29.384Z,4.71
2024-02-07T08:00:28.238Z,4.77
2024-02-07T08:01:28.422Z,5.00
2024-02-07T08:02:28.371Z,4.89
2024-02-07T08:03:28.253Z,5.02
2024-02-07T08:04:28.344Z,5.37
2024-02-07T08:05:28.298Z,5.07
2024-02-07T08:06:28.300Z,4.80
2024-02-07T08:07:28.320Z,4.44
2024-02-07T08:08:28.342Z,4.84
2024-02-07T08:09:28.262Z,4.92
2024-02-07T08:10:28.290Z,4.77
2024-02-07T08:11:28.280Z,4.47
2024-02-07T08:12:28.284Z,4.99
2024-02-07T08:13:28.339Z,4.86
2024-02-07T08:14:28.252Z,5.19
2024-02-07T08:15:28.367Z,4.94
2024-02-07T08:16:28.425Z,4.91
2024-02-07T08:17:28.437Z,4.22
2024-02-07T08:18:28.504Z,4.59
2024-02-07T08:19:28.610Z,5.24
2024-02-07T08:20:28.709Z,4.35
2024-02-07T08:21:28.669Z,4.39
2024-02-07T08:22:28.792Z,4.66
2024-02-07T08:23:28.759Z,4.19
2024-02-07T08:24:28.779Z,4.46
2024-02-07T08:25:28.876Z,4.97
2024-02-07T08:26:28.897Z,4.22
2024-02-07T08:27:28.937Z,4.66
2024-02-07T08:28:28.963Z,4.66
2024-02-07T08:29:28.989Z,4.93
2024-02-07T08:30:29.023Z,5.35
2024-02-07T08:31:29.133Z,5.04
2024-02-07T08:32:29.128Z,4.54
2024-02-07T08:33:29.236Z,4.83
2024-02-07T08:34:29.412Z,4.60
2024-02-07T08:35:29.338Z,4.18
2024-02-07T08:36:29.395Z,4.79
2024-02-07T08:37:29.365Z,4.86
2024-02-07T08:38:29.342Z,4.55
2024-02-07T08:39:29.341Z,4.88
2024-02-07T08:40:29.498Z,4.76
2024-02-07T08:41:29.398Z,4.65
2024-02-07T08:42:29.484Z,4.29
2024-02-07T08:43:29.527Z,5.45
2024-02-07T08:44:32.151Z,5.29
2024-02-07T08:45:29.556Z,5.11
2024-02-07T08:46:29.593Z,5.05
2024-02-07T08:47:29.570Z,4.24
2024-02-07T08:48:30.091Z,4.15
2024-02-07T08:49:29.695Z,4.55
2024-02-07T08:50:29.542Z,4.62
2024-02-07T08:51:29.507Z,4.85
2024-02-07T08:52:29.558Z,4.38
2024-02-07T08:53:29.562Z,4.30
2024-02-07T08:54:29.570Z,4.65
2024-02-07T08:55:29.667Z,4.63
2024-02-07T08:56:29.531Z,4.53
2024-02-07T08:57:29.534Z,5.39
2024-02-07T08:58:32.095Z,4.09
2024-02-07T08:59:29.530Z,4.84
2024-02-07T09:00:29.546Z,4.60
2024-02-07T09:01:29.603Z,4.84
2024-02-07T09:02:29.527Z,4.62
2024-02-07T09:03:30.065Z,4.69
2024-02-07T09:04:29.556Z,4.95
2024-02-07T09:05:29.678Z,5.00
2024-02-07T09:06:29.726Z,4.97
2024-02-07T09:07:29.625Z,4.39
2024-02-07T09:08:30.130Z,4.33
2024-02-07T09:09:29.554Z,4.82
2024-02-07T09:10:29.551Z,4.95
2024-02-07T09:11:29.525Z,4.79
2024-02-07T09:12:29.552Z,5.45
2024-02-07T09:13:29.578Z,4.73
2024-02-07T09:14:29.536Z,4.24
2024-02-07T09:15:29.541Z,5.79
2024-02-07T09:16:29.585Z,4.41
2024-02-07T09:17:29.587Z,4.58
2024-02-07T09:18:29.591Z,4.88
2024-02-07T09:19:29.588Z,4.62
2024-02-07T09:20:29.620Z,4.71
2024-02-07T09:21:31.367Z,4.88
2024-02-07T09:22:29.552Z,4.55
2024-02-07T09:23:30.029Z,4.82
2024-02-07T09:24:29.565Z,4.82
2024-02-07T09:25:29.617Z,4.03
2024-02-07T09:26:29.585Z,4.92
2024-02-07T09:27:30.026Z,5.22
2024-02-07T09:28:29.603Z,4.72
2024-02-07T09:29:29.534Z,4.81
2024-02-07T09:30:29.557Z,4.47
2024-02-07T09:31:29.624Z,4.80
2024-02-07T09:32:29.564Z,4.65
2024-02-07T09:33:30.166Z,5.17
2024-02-07T09:34:29.669Z,4.88
2024-02-07T09:35:29.687Z,4.45
2024-02-07T09:36:29.653Z,4.50
2024-02-07T09:37:29.588Z,5.13
2024-02-07T09:38:30.055Z,4.71
2024-02-07T09:39:29.584Z,5.34
2024-02-07T09:40:29.591Z,4.32
2024-02-07T09:41:29.584Z,4.61
2024-02-07T09:42:29.560Z,4.37
2024-02-07T09:43:29.596Z,4.45
2024-02-07T09:44:29.613Z,4.13
2024-02-07T09:45:29.569Z,4.51
2024-02-07T09:46:29.619Z,4.22
2024-02-07T09:47:29.632Z,4.81
2024-02-07T09:48:30.329Z,5.09
2024-02-07T09:49:29.677Z,5.08
2024-02-07T09:50:29.655Z,4.31
2024-02-07T09:51:29.570Z,5.44
2024-02-07T09:52:29.613Z,4.43
2024-02-07T09:53:31.882Z,5.02
2024-02-07T09:54:29.571Z,5.39
2024-02-07T09:55:29.608Z,4.84
2024-02-07T09:56:29.596Z,4.42
2024-02-07T09:57:29.590Z,4.36
2024-02-07T09:58:30.094Z,4.78
2024-02-07T09:59:29.631Z,4.51
2024-02-07T10:00:29.627Z,4.33
2024-02-07T10:01:29.762Z,4.64
2024-02-07T10:02:29.703Z,4.06
2024-02-07T10:03:30.137Z,4.47
2024-02-07T10:04:30.969Z,4.86
2024-02-07T10:05:29.760Z,4.00
2024-02-07T10:06:29.606Z,4.78
2024-02-07T10:07:29.659Z,4.16
2024-02-07T10:08:30.111Z,4.43
2024-02-07T10:09:29.609Z,4.20
2024-02-07T10:10:29.652Z,4.76
2024-02-07T10:11:29.642Z,5.04
2024-02-07T10:12:29.593Z,4.71
2024-02-07T10:13:30.090Z,4.52
2024-02-07T10:14:29.936Z,4.20
2024-02-07T10:15:29.613Z,4.59
2024-02-07T10:16:29.712Z,4.88
2024-02-07T10:17:29.626Z,4.47
2024-02-07T10:18:30.154Z,5.03
2024-02-07T10:19:29.685Z,5.10
2024-02-07T10:20:30.605Z,4.40
2024-02-07T10:21:29.628Z,3.89
2024-02-07T10:22:29.605Z,4.42
2024-02-07T10:23:30.026Z,4.66
2024-02-07T10:24:29.633Z,4.93
2024-02-07T10:25:29.672Z,4.63
2024-02-07T10:26:29.658Z,4.20
2024-02-07T10:27:29.652Z,4.36
2024-02-07T10:28:29.705Z,5.13
2024-02-07T10:29:29.624Z,4.45
2024-02-07T10:30:29.634Z,5.37
2024-02-07T10:31:29.710Z,4.92
2024-02-07T10:32:29.672Z,4.39
2024-02-07T10:33:32.975Z,4.82
2024-02-07T10:34:30.672Z,4.38
2024-02-07T10:35:29.867Z,5.21
2024-02-07T10:36:29.634Z,4.60
2024-02-07T10:37:29.693Z,4.54
2024-02-07T10:38:29.645Z,4.43
2024-02-07T10:39:29.636Z,4.55
2024-02-07T10:40:29.649Z,4.70
2024-02-07T10:41:29.610Z,4.95
2024-02-07T10:42:29.648Z,5.47
2024-02-07T10:43:29.677Z,4.08
2024-02-07T10:44:29.625Z,4.31
2024-02-07T10:45:29.635Z,4.54
2024-02-07T10:46:29.693Z,4.47
2024-02-07T10:47:29.770Z,4.83
2024-02-07T10:48:30.196Z,5.14
2024-02-07T10:49:29.949Z,5.68
2024-02-07T10:50:29.978Z,5.06
2024-02-07T10:51:29.931Z,5.26
2024-02-07T10:52:29.964Z,4.92
2024-02-07T10:53:30.036Z,4.92
2024-02-07T10:54:30.023Z,4.53
2024-02-07T10:55:30.186Z,4.73
2024-02-07T10:56:30.165Z,5.61
2024-02-07T10:57:30.197Z,5.27
2024-02-07T10:58:30.539Z,4.91
2024-02-07T10:59:30.298Z,4.66
2024-02-07T11:00:30.435Z,4.33
2024-02-07T11:01:30.511Z,4.35
2024-02-07T11:02:30.533Z,4.71
2024-02-07T11:03:30.691Z,4.59
2024-02-07T11:04:31.062Z,4.80
2024-02-07T11:05:30.593Z,5.24
2024-02-07T11:06:30.690Z,4.57
2024-02-07T11:07:30.854Z,5.16
2024-02-07T11:08:30.701Z,4.49
2024-02-07T11:09:30.709Z,4.53
2024-02-07T11:10:30.863Z,4.37
2024-02-07T11:11:30.813Z,4.58
2024-02-07T11:12:30.789Z,4.36
2024-02-07T11:13:30.812Z,5.38
2024-02-07T11:14:30.786Z,4.74
2024-02-07T11:15:30.818Z,5.11
2024-02-07T11:16:30.860Z,5.51
2024-02-07T11:17:30.892Z,4.59
2024-02-07T11:18:30.911Z,5.20
2024-02-07T11:19:30.980Z,5.35
2024-02-07T11:20:30.936Z,4.23
2024-02-07T11:21:30.944Z,4.80
2024-02-07T11:22:31.585Z,4.46
2024-02-07T11:23:31.037Z,5.06
2024-02-07T11:24:31.014Z,4.71
2024-02-07T11:25:31.030Z,4.58
2024-02-07T11:26:31.048Z,5.02
2024-02-07T11:27:31.096Z,4.59
2024-02-07T11:28:31.159Z,4.63
2024-02-07T11:29:31.182Z,5.68
2024-02-07T11:30:31.154Z,4.97
2024-02-07T11:31:31.264Z,4.61
2024-02-07T11:32:31.256Z,4.35
2024-02-07T11:33:31.304Z,4.56
2024-02-07T11:34:31.424Z,4.68
2024-02-07T11:35:31.421Z,4.92
2024-02-07T11:36:31.371Z,4.49
2024-02-07T11:37:31.408Z,5.68
2024-02-07T11:38:31.570Z,5.08
2024-02-07T11:39:31.405Z,4.51
2024-02-07T11:40:31.497Z,5.35
2024-02-07T11:41:31.496Z,4.39
2024-02-07T11:42:31.494Z,5.72
2024-02-07T11:43:31.646Z,4.48
2024-02-07T11:44:31.578Z,4.47
2024-02-07T11:45:31.580Z,4.77
2024-02-07T11:46:31.662Z,4.32
2024-02-07T11:47:31.975Z,4.68
2024-02-07T11:48:31.806Z,5.19
2024-02-07T11:49:31.794Z,4.45
2024-02-07T11:50:31.736Z,4.69
2024-02-07T11:51:31.766Z,4.74
2024-02-07T11:52:31.818Z,4.60
2024-02-07T11:53:31.861Z,4.49
2024-02-07T11:54:32.517Z,4.34
2024-02-07T11:55:31.940Z,5.00
2024-02-07T11:56:31.915Z,5.00
2024-02-07T11:57:31.905Z,5.50
2024-02-07T11:58:32.088Z,5.13
2024-02-07T11:59:31.979Z,4.50
2024-02-07T12:00:32.041Z,4.69
2024-02-07T12:01:32.166Z,4.90
2024-02-07T12:02:32.079Z,4.82
2024-02-07T12:03:32.074Z,4.55
2024-02-07T12:04:32.206Z,5.21
2024-02-07T12:05:32.212Z,4.80
2024-02-07T12:06:32.231Z,4.64
2024-02-07T12:07:32.414Z,4.57
2024-02-07T12:08:32.211Z,4.27
2024-02-07T12:09:32.221Z,5.24
2024-02-07T12:10:32.286Z,5.23
2024-02-07T12:11:32.300Z,5.41
2024-02-07T12:12:32.322Z,4.55
2024-02-07T12:13:32.416Z,4.40
2024-02-07T12:14:32.401Z,4.72
2024-02-07T12:15:32.409Z,4.77
2024-02-07T12:16:32.459Z,5.24
2024-02-07T12:17:32.458Z,4.85
2024-02-07T12:18:32.644Z,4.82
2024-02-07T12:19:32.610Z,4.69
2024-02-07T12:20:32.611Z,5.09
2024-02-07T12:21:32.572Z,4.65
2024-02-07T12:22:32.616Z,4.84
2024-02-07T12:23:33.111Z,4.62
2024-02-07T12:24:32.709Z,4.65
2024-02-07T12:25:32.841Z,5.53
2024-02-07T12:26:32.693Z,6.58
2024-02-07T12:27:32.727Z,6.08
2024-02-07T12:28:32.900Z,7.37
2024-02-07T12:29:32.798Z,7.13
2024-02-07T12:30:32.812Z,7.16
2024-02-07T12:31:32.883Z,6.15
2024-02-07T12:32:34.081Z,6.57
2024-02-07T12:33:32.976Z,5.99
2024-02-07T12:34:33.110Z,5.99
2024-02-07T12:35:33.006Z,6.16
2024-02-07T12:36:32.910Z,4.83
2024-02-07T12:37:32.946Z,5.66
2024-02-07T12:38:32.950Z,5.55
2024-02-07T12:39:32.883Z,5.50
2024-02-07T12:40:33.743Z,5.74
2024-02-07T12:41:32.891Z,5.68
2024-02-07T12:42:32.918Z,5.25
2024-02-07T12:43:32.916Z,5.15
2024-02-07T12:44:32.914Z,5.44
2024-02-07T12:45:32.942Z,4.97
2024-02-07T12:46:32.995Z,5.23
2024-02-07T12:47:32.965Z,5.17
2024-02-07T12:48:33.048Z,5.30
2024-02-07T12:49:33.061Z,5.27
2024-02-07T12:50:33.004Z,6.35
2024-02-07T12:51:32.900Z,5.74
2024-02-07T12:52:32.963Z,5.19
2024-02-07T12:53:32.922Z,5.68
2024-02-07T12:54:32.917Z,5.09
2024-02-07T12:55:32.985Z,5.18
2024-02-07T12:56:32.887Z,5.16
2024-02-07T12:57:32.915Z,4.76
2024-02-07T12:58:32.960Z,5.55
2024-02-07T12:59:32.925Z,5.85
2024-02-07T13:00:32.973Z,5.63
2024-02-07T13:01:33.057Z,5.36
2024-02-07T13:02:32.929Z,4.75
2024-02-07T13:03:33.115Z,5.22
2024-02-07T13:04:33.020Z,5.12
2024-02-07T13:05:33.063Z,4.95
2024-02-07T13:06:33.071Z,5.44
2024-02-07T13:07:33.014Z,4.65
2024-02-07T13:08:32.932Z,5.26
2024-02-07T13:09:32.918Z,4.78
2024-02-07T13:10:33.031Z,5.52
2024-02-07T13:11:32.930Z,5.57
2024-02-07T13:12:32.939Z,5.07
2024-02-07T13:13:32.991Z,5.23
2024-02-07T13:14:32.939Z,4.56
2024-02-07T13:16:39.569Z,4.50
2024-02-07T13:17:39.566Z,5.28
2024-02-07T13:18:40.076Z,4.99
2024-02-07T13:19:39.616Z,5.20